sensor_id;sensor_type;location;lat;lon;timestamp;P1;durP1;ratioP1;P2;durP2;ratioP2
8889;SDS011;4481;43.406;24.454;2023-04-15T00:01:45;5.87;;;3.30;;
8889;SDS011;4481;43.406;24.454;2023-04-15T00:04:11;5.83;;;4.17;;
8889;SDS011;4481;43.406;24.454;2023-04-15T00:06:37;5.40;;;4.40;;
8889;SDS011;4481;43.406;24.454;2023-04-15T00:09:04;6.87;;;4.37;;
8889;SDS011;4481;43.406;24.454;2023-04-15T00:11:30;4.37;;;3.67;;
8889;SDS011;4481;43.406;24.454;2023-04-15T00:13:57;6.90;;;3.80;;
8889;SDS011;4481;43.406;24.454;2023-04-15T00:16:23;6.97;;;3.97;;
8889;SDS011;4481;43.406;24.454;2023-04-15T00:18:49;5.23;;;3.50;;
8889;SDS011;4481;43.406;24.454;2023-04-15T00:21:15;3.63;;;3.23;;
8889;SDS011;4481;43.406;24.454;2023-04-15T00:23:41;4.60;;;3.07;;
8889;SDS011;4481;43.406;24.454;2023-04-15T00:26:08;3.33;;;3.03;;
8889;SDS011;4481;43.406;24.454;2023-04-15T00:28:34;3.10;;;2.80;;
8889;SDS011;4481;43.406;24.454;2023-04-15T00:31:01;3.57;;;2.97;;
8889;SDS011;4481;43.406;24.454;2023-04-15T00:33:28;5.07;;;3.53;;
8889;SDS011;4481;43.406;24.454;2023-04-15T00:35:54;11.03;;;4.30;;
8889;SDS011;4481;43.406;24.454;2023-04-15T00:38:20;6.17;;;4.50;;
8889;SDS011;4481;43.406;24.454;2023-04-15T00:40:46;7.57;;;4.70;;
8889;SDS011;4481;43.406;24.454;2023-04-15T00:43:13;5.47;;;4.17;;
8889;SDS011;4481;43.406;24.454;2023-04-15T00:45:39;5.43;;;3.83;;
8889;SDS011;4481;43.406;24.454;2023-04-15T00:48:06;4.73;;;3.60;;
8889;SDS011;4481;43.406;24.454;2023-04-15T00:50:33;6.07;;;3.73;;
8889;SDS011;4481;43.406;24.454;2023-04-15T00:52:59;6.67;;;4.20;;
8889;SDS011;4481;43.406;24.454;2023-04-15T00:55:25;6.97;;;5.10;;
8889;SDS011;4481;43.406;24.454;2023-04-15T00:57:52;6.13;;;4.87;;
8889;SDS011;4481;43.406;24.454;2023-04-15T01:00:19;7.27;;;4.17;;
8889;SDS011;4481;43.406;24.454;2023-04-15T01:02:45;7.73;;;4.37;;
8889;SDS011;4481;43.406;24.454;2023-04-15T01:05:12;5.00;;;3.73;;
8889;SDS011;4481;43.406;24.454;2023-04-15T01:07:41;6.80;;;3.83;;
8889;SDS011;4481;43.406;24.454;2023-04-15T01:10:07;6.23;;;3.93;;
8889;SDS011;4481;43.406;24.454;2023-04-15T01:12:34;6.77;;;4.23;;
8889;SDS011;4481;43.406;24.454;2023-04-15T01:15:02;6.30;;;3.57;;
8889;SDS011;4481;43.406;24.454;2023-04-15T01:17:28;8.33;;;3.60;;
8889;SDS011;4481;43.406;24.454;2023-04-15T01:19:55;5.17;;;3.40;;
8889;SDS011;4481;43.406;24.454;2023-04-15T01:22:22;5.00;;;3.43;;
8889;SDS011;4481;43.406;24.454;2023-04-15T01:24:50;4.23;;;3.83;;
8889;SDS011;4481;43.406;24.454;2023-04-15T01:27:20;7.23;;;4.63;;
8889;SDS011;4481;43.406;24.454;2023-04-15T01:29:47;5.97;;;4.07;;
8889;SDS011;4481;43.406;24.454;2023-04-15T01:32:13;6.40;;;4.40;;
8889;SDS011;4481;43.406;24.454;2023-04-15T01:34:39;11.27;;;5.00;;
8889;SDS011;4481;43.406;24.454;2023-04-15T01:37:06;7.27;;;4.83;;
8889;SDS011;4481;43.406;24.454;2023-04-15T01:39:32;5.47;;;4.20;;
8889;SDS011;4481;43.406;24.454;2023-04-15T01:41:58;4.33;;;3.87;;
8889;SDS011;4481;43.406;24.454;2023-04-15T01:44:25;8.70;;;4.53;;
8889;SDS011;4481;43.406;24.454;2023-04-15T01:46:51;5.17;;;4.50;;
8889;SDS011;4481;43.406;24.454;2023-04-15T01:49:17;9.00;;;4.50;;
8889;SDS011;4481;43.406;24.454;2023-04-15T01:51:44;7.80;;;4.83;;
8889;SDS011;4481;43.406;24.454;2023-04-15T01:54:10;6.77;;;4.80;;
8889;SDS011;4481;43.406;24.454;2023-04-15T01:56:36;8.80;;;5.07;;
8889;SDS011;4481;43.406;24.454;2023-04-15T01:59:03;7.43;;;5.57;;
8889;SDS011;4481;43.406;24.454;2023-04-15T02:01:29;5.80;;;4.93;;
8889;SDS011;4481;43.406;24.454;2023-04-15T02:03:56;6.03;;;5.10;;
8889;SDS011;4481;43.406;24.454;2023-04-15T02:06:22;7.23;;;4.67;;
8889;SDS011;4481;43.406;24.454;2023-04-15T02:08:48;5.33;;;4.37;;
8889;SDS011;4481;43.406;24.454;2023-04-15T02:11:14;6.27;;;4.97;;
8889;SDS011;4481;43.406;24.454;2023-04-15T02:13:40;8.50;;;4.57;;
8889;SDS011;4481;43.406;24.454;2023-04-15T02:16:14;4.70;;;4.17;;
8889;SDS011;4481;43.406;24.454;2023-04-15T02:18:41;5.37;;;4.63;;
8889;SDS011;4481;43.406;24.454;2023-04-15T02:21:08;9.10;;;5.57;;
8889;SDS011;4481;43.406;24.454;2023-04-15T02:23:34;6.23;;;4.90;;
8889;SDS011;4481;43.406;24.454;2023-04-15T02:26:00;6.80;;;4.87;;
8889;SDS011;4481;43.406;24.454;2023-04-15T02:28:26;6.07;;;5.13;;
8889;SDS011;4481;43.406;24.454;2023-04-15T02:30:53;6.60;;;5.27;;
8889;SDS011;4481;43.406;24.454;2023-04-15T02:33:21;7.90;;;5.43;;
8889;SDS011;4481;43.406;24.454;2023-04-15T02:35:48;4.67;;;4.13;;
8889;SDS011;4481;43.406;24.454;2023-04-15T02:38:14;5.13;;;4.63;;
8889;SDS011;4481;43.406;24.454;2023-04-15T02:40:42;9.07;;;5.10;;
8889;SDS011;4481;43.406;24.454;2023-04-15T02:43:08;4.80;;;4.30;;
8889;SDS011;4481;43.406;24.454;2023-04-15T02:45:34;4.90;;;4.40;;
8889;SDS011;4481;43.406;24.454;2023-04-15T02:48:00;4.50;;;4.00;;
8889;SDS011;4481;43.406;24.454;2023-04-15T02:50:30;5.90;;;4.40;;
8889;SDS011;4481;43.406;24.454;2023-04-15T02:52:57;5.83;;;4.53;;
8889;SDS011;4481;43.406;24.454;2023-04-15T02:55:25;7.17;;;4.87;;
8889;SDS011;4481;43.406;24.454;2023-04-15T02:57:51;5.20;;;4.23;;
8889;SDS011;4481;43.406;24.454;2023-04-15T03:00:17;7.17;;;4.40;;
8889;SDS011;4481;43.406;24.454;2023-04-15T03:02:44;9.50;;;5.17;;
8889;SDS011;4481;43.406;24.454;2023-04-15T03:05:11;11.47;;;5.53;;
8889;SDS011;4481;43.406;24.454;2023-04-15T03:07:37;6.10;;;5.50;;
8889;SDS011;4481;43.406;24.454;2023-04-15T03:10:05;8.27;;;5.30;;
8889;SDS011;4481;43.406;24.454;2023-04-15T03:12:32;7.07;;;5.23;;
8889;SDS011;4481;43.406;24.454;2023-04-15T03:14:58;9.33;;;5.23;;
8889;SDS011;4481;43.406;24.454;2023-04-15T03:17:26;7.70;;;5.67;;
8889;SDS011;4481;43.406;24.454;2023-04-15T03:19:52;6.70;;;4.57;;
8889;SDS011;4481;43.406;24.454;2023-04-15T03:22:18;10.80;;;5.50;;
8889;SDS011;4481;43.406;24.454;2023-04-15T03:24:44;7.27;;;6.00;;
8889;SDS011;4481;43.406;24.454;2023-04-15T03:27:11;11.03;;;5.73;;
8889;SDS011;4481;43.406;24.454;2023-04-15T03:29:37;7.27;;;6.13;;
8889;SDS011;4481;43.406;24.454;2023-04-15T03:32:04;10.93;;;6.27;;
8889;SDS011;4481;43.406;24.454;2023-04-15T03:34:30;7.87;;;6.43;;
8889;SDS011;4481;43.406;24.454;2023-04-15T03:36:56;5.87;;;4.80;;
8889;SDS011;4481;43.406;24.454;2023-04-15T03:39:22;7.40;;;5.17;;
8889;SDS011;4481;43.406;24.454;2023-04-15T03:41:48;7.10;;;5.37;;
8889;SDS011;4481;43.406;24.454;2023-04-15T03:44:15;7.83;;;5.50;;
8889;SDS011;4481;43.406;24.454;2023-04-15T03:46:41;8.37;;;6.07;;
8889;SDS011;4481;43.406;24.454;2023-04-15T03:49:07;9.33;;;5.87;;
8889;SDS011;4481;43.406;24.454;2023-04-15T03:51:33;5.43;;;4.93;;
8889;SDS011;4481;43.406;24.454;2023-04-15T03:53:59;9.50;;;5.90;;
8889;SDS011;4481;43.406;24.454;2023-04-15T03:56:26;7.93;;;5.90;;
8889;SDS011;4481;43.406;24.454;2023-04-15T03:58:52;9.50;;;6.13;;
8889;SDS011;4481;43.406;24.454;2023-04-15T04:01:19;10.33;;;6.17;;
8889;SDS011;4481;43.406;24.454;2023-04-15T04:03:45;11.67;;;6.00;;
8889;SDS011;4481;43.406;24.454;2023-04-15T04:06:11;6.23;;;4.90;;
8889;SDS011;4481;43.406;24.454;2023-04-15T04:08:37;6.17;;;5.10;;
8889;SDS011;4481;43.406;24.454;2023-04-15T04:11:04;7.23;;;4.77;;
8889;SDS011;4481;43.406;24.454;2023-04-15T04:13:30;10.57;;;5.87;;
8889;SDS011;4481;43.406;24.454;2023-04-15T04:15:56;8.10;;;5.77;;
8889;SDS011;4481;43.406;24.454;2023-04-15T04:18:23;13.73;;;6.90;;
8889;SDS011;4481;43.406;24.454;2023-04-15T04:20:49;8.33;;;5.73;;
8889;SDS011;4481;43.406;24.454;2023-04-15T04:23:16;7.70;;;5.60;;
8889;SDS011;4481;43.406;24.454;2023-04-15T04:25:42;6.97;;;5.07;;
8889;SDS011;4481;43.406;24.454;2023-04-15T04:28:08;10.80;;;8.23;;
8889;SDS011;4481;43.406;24.454;2023-04-15T04:30:35;17.17;;;9.87;;
8889;SDS011;4481;43.406;24.454;2023-04-15T04:33:02;17.57;;;9.87;;
8889;SDS011;4481;43.406;24.454;2023-04-15T04:35:29;15.40;;;9.43;;
8889;SDS011;4481;43.406;24.454;2023-04-15T04:37:56;14.40;;;9.37;;
8889;SDS011;4481;43.406;24.454;2023-04-15T04:40:22;12.10;;;9.27;;
8889;SDS011;4481;43.406;24.454;2023-04-15T04:42:48;17.83;;;8.27;;
8889;SDS011;4481;43.406;24.454;2023-04-15T04:45:14;13.07;;;8.87;;
8889;SDS011;4481;43.406;24.454;2023-04-15T04:47:40;17.60;;;8.77;;
8889;SDS011;4481;43.406;24.454;2023-04-15T04:50:07;12.13;;;8.57;;
8889;SDS011;4481;43.406;24.454;2023-04-15T04:52:35;11.07;;;7.70;;
8889;SDS011;4481;43.406;24.454;2023-04-15T04:55:01;12.27;;;7.40;;
8889;SDS011;4481;43.406;24.454;2023-04-15T04:57:27;11.50;;;6.80;;
8889;SDS011;4481;43.406;24.454;2023-04-15T04:59:53;7.07;;;6.37;;
8889;SDS011;4481;43.406;24.454;2023-04-15T05:02:19;8.83;;;6.13;;
8889;SDS011;4481;43.406;24.454;2023-04-15T05:04:45;8.83;;;6.07;;
8889;SDS011;4481;43.406;24.454;2023-04-15T05:07:12;9.17;;;6.47;;
8889;SDS011;4481;43.406;24.454;2023-04-15T05:09:38;9.13;;;6.10;;
8889;SDS011;4481;43.406;24.454;2023-04-15T05:12:05;9.33;;;6.23;;
8889;SDS011;4481;43.406;24.454;2023-04-15T05:14:33;6.77;;;6.03;;
8889;SDS011;4481;43.406;24.454;2023-04-15T05:16:59;9.73;;;6.37;;
8889;SDS011;4481;43.406;24.454;2023-04-15T05:19:25;4.80;;;4.03;;
8889;SDS011;4481;43.406;24.454;2023-04-15T05:21:51;5.67;;;3.30;;
8889;SDS011;4481;43.406;24.454;2023-04-15T05:24:17;5.77;;;3.80;;
8889;SDS011;4481;43.406;24.454;2023-04-15T05:26:44;3.23;;;2.73;;
8889;SDS011;4481;43.406;24.454;2023-04-15T05:29:10;3.63;;;3.20;;
8889;SDS011;4481;43.406;24.454;2023-04-15T05:31:36;3.37;;;3.07;;
8889;SDS011;4481;43.406;24.454;2023-04-15T05:34:02;3.60;;;2.87;;
8889;SDS011;4481;43.406;24.454;2023-04-15T05:36:29;3.90;;;3.10;;
8889;SDS011;4481;43.406;24.454;2023-04-15T05:38:56;3.30;;;3.00;;
8889;SDS011;4481;43.406;24.454;2023-04-15T05:41:22;7.20;;;2.70;;
8889;SDS011;4481;43.406;24.454;2023-04-15T05:43:48;3.37;;;2.37;;
8889;SDS011;4481;43.406;24.454;2023-04-15T05:46:15;3.20;;;2.60;;
8889;SDS011;4481;43.406;24.454;2023-04-15T05:48:41;4.80;;;2.43;;
8889;SDS011;4481;43.406;24.454;2023-04-15T05:51:07;2.40;;;2.20;;
8889;SDS011;4481;43.406;24.454;2023-04-15T05:53:33;4.33;;;2.80;;
8889;SDS011;4481;43.406;24.454;2023-04-15T05:56:00;2.97;;;2.50;;
8889;SDS011;4481;43.406;24.454;2023-04-15T05:58:26;4.13;;;2.53;;
8889;SDS011;4481;43.406;24.454;2023-04-15T06:00:53;3.27;;;2.50;;
8889;SDS011;4481;43.406;24.454;2023-04-15T06:03:19;2.80;;;2.13;;
8889;SDS011;4481;43.406;24.454;2023-04-15T06:05:45;2.53;;;2.10;;
8889;SDS011;4481;43.406;24.454;2023-04-15T06:08:12;3.43;;;2.77;;
8889;SDS011;4481;43.406;24.454;2023-04-15T06:10:38;5.37;;;3.20;;
8889;SDS011;4481;43.406;24.454;2023-04-15T06:13:04;2.77;;;2.40;;
8889;SDS011;4481;43.406;24.454;2023-04-15T06:15:31;2.53;;;2.30;;
8889;SDS011;4481;43.406;24.454;2023-04-15T06:17:58;3.23;;;2.23;;
8889;SDS011;4481;43.406;24.454;2023-04-15T06:20:24;5.23;;;2.60;;
8889;SDS011;4481;43.406;24.454;2023-04-15T06:22:50;3.57;;;2.40;;
8889;SDS011;4481;43.406;24.454;2023-04-15T06:25:17;2.67;;;2.47;;
8889;SDS011;4481;43.406;24.454;2023-04-15T06:27:43;4.10;;;2.10;;
8889;SDS011;4481;43.406;24.454;2023-04-15T06:30:09;3.90;;;2.40;;
8889;SDS011;4481;43.406;24.454;2023-04-15T06:32:36;3.37;;;2.50;;
8889;SDS011;4481;43.406;24.454;2023-04-15T06:35:03;2.90;;;2.10;;
8889;SDS011;4481;43.406;24.454;2023-04-15T06:37:29;2.13;;;1.70;;
8889;SDS011;4481;43.406;24.454;2023-04-15T06:39:56;2.23;;;1.97;;
8889;SDS011;4481;43.406;24.454;2023-04-15T06:42:22;7.13;;;3.00;;
8889;SDS011;4481;43.406;24.454;2023-04-15T06:44:49;3.83;;;2.60;;
8889;SDS011;4481;43.406;24.454;2023-04-15T06:47:15;3.37;;;2.70;;
8889;SDS011;4481;43.406;24.454;2023-04-15T06:49:41;5.37;;;2.53;;
8889;SDS011;4481;43.406;24.454;2023-04-15T06:52:08;3.73;;;2.50;;
8889;SDS011;4481;43.406;24.454;2023-04-15T06:54:35;5.90;;;2.57;;
8889;SDS011;4481;43.406;24.454;2023-04-15T06:57:01;2.47;;;2.10;;
8889;SDS011;4481;43.406;24.454;2023-04-15T06:59:27;2.40;;;2.20;;
8889;SDS011;4481;43.406;24.454;2023-04-15T07:01:54;3.17;;;1.83;;
8889;SDS011;4481;43.406;24.454;2023-04-15T07:04:20;2.77;;;2.20;;
8889;SDS011;4481;43.406;24.454;2023-04-15T07:06:46;3.97;;;2.10;;
8889;SDS011;4481;43.406;24.454;2023-04-15T07:09:13;2.90;;;2.07;;
8889;SDS011;4481;43.406;24.454;2023-04-15T07:11:39;2.97;;;1.90;;
8889;SDS011;4481;43.406;24.454;2023-04-15T07:14:05;2.70;;;2.00;;
8889;SDS011;4481;43.406;24.454;2023-04-15T07:16:31;2.23;;;1.80;;
8889;SDS011;4481;43.406;24.454;2023-04-15T07:18:57;2.07;;;1.87;;
8889;SDS011;4481;43.406;24.454;2023-04-15T07:21:24;3.27;;;2.00;;
8889;SDS011;4481;43.406;24.454;2023-04-15T07:23:51;7.23;;;2.30;;
8889;SDS011;4481;43.406;24.454;2023-04-15T07:26:18;2.87;;;1.90;;
8889;SDS011;4481;43.406;24.454;2023-04-15T07:28:44;2.23;;;2.00;;
8889;SDS011;4481;43.406;24.454;2023-04-15T07:31:11;3.63;;;1.90;;
8889;SDS011;4481;43.406;24.454;2023-04-15T07:33:37;3.03;;;1.77;;
8889;SDS011;4481;43.406;24.454;2023-04-15T07:36:04;4.33;;;2.10;;
8889;SDS011;4481;43.406;24.454;2023-04-15T07:38:30;3.83;;;1.80;;
8889;SDS011;4481;43.406;24.454;2023-04-15T07:40:56;2.33;;;1.90;;
8889;SDS011;4481;43.406;24.454;2023-04-15T07:43:23;2.67;;;1.80;;
8889;SDS011;4481;43.406;24.454;2023-04-15T07:45:49;2.53;;;1.90;;
8889;SDS011;4481;43.406;24.454;2023-04-15T07:48:15;2.40;;;1.87;;
8889;SDS011;4481;43.406;24.454;2023-04-15T07:50:41;4.27;;;1.93;;
8889;SDS011;4481;43.406;24.454;2023-04-15T07:53:07;6.20;;;2.00;;
8889;SDS011;4481;43.406;24.454;2023-04-15T07:55:34;1.93;;;1.70;;
8889;SDS011;4481;43.406;24.454;2023-04-15T07:58:00;2.27;;;1.87;;
8889;SDS011;4481;43.406;24.454;2023-04-15T08:00:27;5.23;;;2.97;;
8889;SDS011;4481;43.406;24.454;2023-04-15T08:02:53;2.87;;;2.53;;
8889;SDS011;4481;43.406;24.454;2023-04-15T08:05:23;3.33;;;1.90;;
8889;SDS011;4481;43.406;24.454;2023-04-15T08:07:49;2.20;;;2.00;;
8889;SDS011;4481;43.406;24.454;2023-04-15T08:10:16;2.43;;;2.00;;
8889;SDS011;4481;43.406;24.454;2023-04-15T08:12:42;7.37;;;2.27;;
8889;SDS011;4481;43.406;24.454;2023-04-15T08:15:08;2.57;;;2.07;;
8889;SDS011;4481;43.406;24.454;2023-04-15T08:17:35;3.93;;;1.83;;
8889;SDS011;4481;43.406;24.454;2023-04-15T08:20:02;3.17;;;1.90;;
8889;SDS011;4481;43.406;24.454;2023-04-15T08:22:29;4.83;;;2.17;;
8889;SDS011;4481;43.406;24.454;2023-04-15T08:24:56;4.50;;;1.90;;
8889;SDS011;4481;43.406;24.454;2023-04-15T08:27:22;3.67;;;2.13;;
8889;SDS011;4481;43.406;24.454;2023-04-15T08:29:48;4.37;;;1.90;;
8889;SDS011;4481;43.406;24.454;2023-04-15T08:32:14;2.50;;;2.00;;
8889;SDS011;4481;43.406;24.454;2023-04-15T08:34:41;6.17;;;2.40;;
8889;SDS011;4481;43.406;24.454;2023-04-15T08:37:07;3.33;;;2.40;;
8889;SDS011;4481;43.406;24.454;2023-04-15T08:39:33;4.07;;;2.50;;
8889;SDS011;4481;43.406;24.454;2023-04-15T08:42:00;3.87;;;2.40;;
8889;SDS011;4481;43.406;24.454;2023-04-15T08:44:28;5.23;;;2.47;;
8889;SDS011;4481;43.406;24.454;2023-04-15T08:46:56;2.90;;;2.30;;
8889;SDS011;4481;43.406;24.454;2023-04-15T08:49:26;3.13;;;2.63;;
8889;SDS011;4481;43.406;24.454;2023-04-15T08:51:54;4.50;;;2.10;;
8889;SDS011;4481;43.406;24.454;2023-04-15T08:54:22;4.13;;;2.10;;
8889;SDS011;4481;43.406;24.454;2023-04-15T08:56:50;2.80;;;2.10;;
8889;SDS011;4481;43.406;24.454;2023-04-15T08:59:17;3.40;;;2.30;;
8889;SDS011;4481;43.406;24.454;2023-04-15T09:01:45;6.40;;;2.43;;
8889;SDS011;4481;43.406;24.454;2023-04-15T09:04:11;3.67;;;2.50;;
8889;SDS011;4481;43.406;24.454;2023-04-15T09:06:38;4.47;;;2.17;;
8889;SDS011;4481;43.406;24.454;2023-04-15T09:09:06;2.23;;;1.80;;
8889;SDS011;4481;43.406;24.454;2023-04-15T09:11:32;4.80;;;1.97;;
8889;SDS011;4481;43.406;24.454;2023-04-15T09:13:59;2.60;;;2.40;;
8889;SDS011;4481;43.406;24.454;2023-04-15T09:16:25;4.63;;;2.10;;
8889;SDS011;4481;43.406;24.454;2023-04-15T09:18:52;2.80;;;2.37;;
8889;SDS011;4481;43.406;24.454;2023-04-15T09:21:18;4.47;;;2.60;;
8889;SDS011;4481;43.406;24.454;2023-04-15T09:23:55;3.00;;;2.30;;
8889;SDS011;4481;43.406;24.454;2023-04-15T09:26:30;4.03;;;2.20;;
8889;SDS011;4481;43.406;24.454;2023-04-15T09:29:01;3.20;;;2.17;;
8889;SDS011;4481;43.406;24.454;2023-04-15T09:31:30;3.57;;;2.03;;
8889;SDS011;4481;43.406;24.454;2023-04-15T09:33:56;4.47;;;2.10;;
8889;SDS011;4481;43.406;24.454;2023-04-15T09:36:22;2.53;;;2.27;;
8889;SDS011;4481;43.406;24.454;2023-04-15T09:38:53;2.80;;;2.00;;
8889;SDS011;4481;43.406;24.454;2023-04-15T09:41:20;3.23;;;2.27;;
8889;SDS011;4481;43.406;24.454;2023-04-15T09:43:48;3.37;;;2.33;;
8889;SDS011;4481;43.406;24.454;2023-04-15T09:46:14;3.53;;;1.90;;
8889;SDS011;4481;43.406;24.454;2023-04-15T09:48:40;2.53;;;1.90;;
8889;SDS011;4481;43.406;24.454;2023-04-15T09:51:06;3.73;;;1.87;;
8889;SDS011;4481;43.406;24.454;2023-04-15T09:53:33;2.80;;;2.03;;
8889;SDS011;4481;43.406;24.454;2023-04-15T09:56:00;2.47;;;1.93;;
8889;SDS011;4481;43.406;24.454;2023-04-15T09:58:28;2.20;;;2.00;;
8889;SDS011;4481;43.406;24.454;2023-04-15T10:00:56;10.77;;;2.30;;
8889;SDS011;4481;43.406;24.454;2023-04-15T10:03:24;3.93;;;2.40;;
8889;SDS011;4481;43.406;24.454;2023-04-15T10:05:52;3.83;;;1.83;;
8889;SDS011;4481;43.406;24.454;2023-04-15T10:08:20;4.50;;;1.93;;
8889;SDS011;4481;43.406;24.454;2023-04-15T10:10:48;3.57;;;1.90;;
8889;SDS011;4481;43.406;24.454;2023-04-15T10:13:17;2.50;;;1.60;;
8889;SDS011;4481;43.406;24.454;2023-04-15T10:15:47;2.77;;;1.90;;
8889;SDS011;4481;43.406;24.454;2023-04-15T10:18:16;4.27;;;1.87;;
8889;SDS011;4481;43.406;24.454;2023-04-15T10:20:45;2.90;;;1.40;;
8889;SDS011;4481;43.406;24.454;2023-04-15T10:23:13;4.20;;;1.90;;
8889;SDS011;4481;43.406;24.454;2023-04-15T10:25:40;5.60;;;1.80;;
8889;SDS011;4481;43.406;24.454;2023-04-15T10:28:06;2.23;;;1.50;;
8889;SDS011;4481;43.406;24.454;2023-04-15T10:30:33;5.07;;;1.60;;
8889;SDS011;4481;43.406;24.454;2023-04-15T10:33:00;3.43;;;2.20;;
8889;SDS011;4481;43.406;24.454;2023-04-15T10:35:29;1.70;;;1.43;;
8889;SDS011;4481;43.406;24.454;2023-04-15T10:37:56;4.93;;;1.70;;
8889;SDS011;4481;43.406;24.454;2023-04-15T10:40:24;4.57;;;2.00;;
8889;SDS011;4481;43.406;24.454;2023-04-15T10:42:55;2.53;;;1.87;;
8889;SDS011;4481;43.406;24.454;2023-04-15T10:45:24;2.80;;;1.80;;
8889;SDS011;4481;43.406;24.454;2023-04-15T10:47:53;2.67;;;1.70;;
8889;SDS011;4481;43.406;24.454;2023-04-15T10:50:19;1.80;;;1.60;;
8889;SDS011;4481;43.406;24.454;2023-04-15T10:52:49;2.70;;;1.50;;
8889;SDS011;4481;43.406;24.454;2023-04-15T10:55:17;1.67;;;1.40;;
8889;SDS011;4481;43.406;24.454;2023-04-15T10:57:45;1.60;;;1.50;;
8889;SDS011;4481;43.406;24.454;2023-04-15T11:00:12;3.07;;;1.73;;
8889;SDS011;4481;43.406;24.454;2023-04-15T11:02:43;2.63;;;1.43;;
8889;SDS011;4481;43.406;24.454;2023-04-15T11:05:11;3.63;;;1.57;;
8889;SDS011;4481;43.406;24.454;2023-04-15T11:07:39;5.70;;;1.93;;
8889;SDS011;4481;43.406;24.454;2023-04-15T11:13:25;2.23;;;1.50;;
8889;SDS011;4481;43.406;24.454;2023-04-15T11:15:57;1.63;;;1.40;;
8889;SDS011;4481;43.406;24.454;2023-04-15T11:18:25;3.13;;;1.50;;
8889;SDS011;4481;43.406;24.454;2023-04-15T11:20:55;1.33;;;1.23;;
8889;SDS011;4481;43.406;24.454;2023-04-15T11:23:27;2.83;;;1.40;;
8889;SDS011;4481;43.406;24.454;2023-04-15T11:25:55;3.63;;;1.53;;
8889;SDS011;4481;43.406;24.454;2023-04-15T11:28:23;4.50;;;1.57;;
8889;SDS011;4481;43.406;24.454;2023-04-15T11:30:52;4.10;;;1.60;;
8889;SDS011;4481;43.406;24.454;2023-04-15T11:33:19;2.77;;;1.40;;
8889;SDS011;4481;43.406;24.454;2023-04-15T11:35:46;3.93;;;1.80;;
8889;SDS011;4481;43.406;24.454;2023-04-15T11:38:13;3.83;;;2.07;;
8889;SDS011;4481;43.406;24.454;2023-04-15T11:40:40;1.63;;;1.47;;
8889;SDS011;4481;43.406;24.454;2023-04-15T11:43:08;4.33;;;1.47;;
8889;SDS011;4481;43.406;24.454;2023-04-15T11:45:37;1.93;;;1.37;;
8889;SDS011;4481;43.406;24.454;2023-04-15T11:48:12;2.67;;;1.50;;
8889;SDS011;4481;43.406;24.454;2023-04-15T11:50:38;2.97;;;1.60;;
8889;SDS011;4481;43.406;24.454;2023-04-15T11:53:06;1.80;;;1.33;;
8889;SDS011;4481;43.406;24.454;2023-04-15T11:55:40;5.00;;;1.50;;
8889;SDS011;4481;43.406;24.454;2023-04-15T11:58:08;2.60;;;1.67;;
8889;SDS011;4481;43.406;24.454;2023-04-15T12:00:36;3.70;;;1.83;;
8889;SDS011;4481;43.406;24.454;2023-04-15T12:03:10;1.67;;;1.37;;
8889;SDS011;4481;43.406;24.454;2023-04-15T12:08:50;3.87;;;1.50;;
8889;SDS011;4481;43.406;24.454;2023-04-15T12:14:11;2.70;;;1.30;;
8889;SDS011;4481;43.406;24.454;2023-04-15T12:16:43;2.43;;;1.50;;
8889;SDS011;4481;43.406;24.454;2023-04-15T12:19:11;3.37;;;1.60;;
8889;SDS011;4481;43.406;24.454;2023-04-15T12:21:39;1.60;;;1.50;;
8889;SDS011;4481;43.406;24.454;2023-04-15T12:24:09;3.03;;;1.60;;
8889;SDS011;4481;43.406;24.454;2023-04-15T12:26:37;2.77;;;1.70;;
8889;SDS011;4481;43.406;24.454;2023-04-15T12:29:09;3.40;;;1.40;;
8889;SDS011;4481;43.406;24.454;2023-04-15T12:31:42;2.33;;;1.80;;
8889;SDS011;4481;43.406;24.454;2023-04-15T12:34:14;4.03;;;1.60;;
8889;SDS011;4481;43.406;24.454;2023-04-15T12:36:40;3.77;;;2.10;;
8889;SDS011;4481;43.406;24.454;2023-04-15T12:39:06;2.87;;;1.60;;
8889;SDS011;4481;43.406;24.454;2023-04-15T12:41:32;2.67;;;1.60;;
8889;SDS011;4481;43.406;24.454;2023-04-15T12:43:58;2.10;;;1.70;;
8889;SDS011;4481;43.406;24.454;2023-04-15T12:46:25;2.57;;;1.83;;
8889;SDS011;4481;43.406;24.454;2023-04-15T12:48:52;3.90;;;1.67;;
8889;SDS011;4481;43.406;24.454;2023-04-15T12:51:21;2.47;;;1.60;;
8889;SDS011;4481;43.406;24.454;2023-04-15T12:53:47;3.93;;;1.63;;
8889;SDS011;4481;43.406;24.454;2023-04-15T12:56:14;3.43;;;2.10;;
8889;SDS011;4481;43.406;24.454;2023-04-15T12:58:40;3.10;;;1.50;;
8889;SDS011;4481;43.406;24.454;2023-04-15T13:01:07;2.63;;;1.60;;
8889;SDS011;4481;43.406;24.454;2023-04-15T13:03:34;2.30;;;1.70;;
8889;SDS011;4481;43.406;24.454;2023-04-15T13:06:01;2.20;;;1.50;;
8889;SDS011;4481;43.406;24.454;2023-04-15T13:08:28;8.30;;;1.97;;
8889;SDS011;4481;43.406;24.454;2023-04-15T13:10:55;2.80;;;1.63;;
8889;SDS011;4481;43.406;24.454;2023-04-15T13:13:21;3.43;;;2.10;;
8889;SDS011;4481;43.406;24.454;2023-04-15T13:15:47;2.50;;;1.50;;
8889;SDS011;4481;43.406;24.454;2023-04-15T13:18:14;3.53;;;1.60;;
8889;SDS011;4481;43.406;24.454;2023-04-15T13:20:40;4.03;;;1.80;;
8889;SDS011;4481;43.406;24.454;2023-04-15T13:23:07;3.73;;;1.60;;
8889;SDS011;4481;43.406;24.454;2023-04-15T13:25:33;7.50;;;1.77;;
8889;SDS011;4481;43.406;24.454;2023-04-15T13:28:00;3.90;;;1.63;;
8889;SDS011;4481;43.406;24.454;2023-04-15T13:30:26;2.40;;;1.47;;
8889;SDS011;4481;43.406;24.454;2023-04-15T13:32:52;8.03;;;1.80;;
8889;SDS011;4481;43.406;24.454;2023-04-15T13:35:19;2.57;;;1.80;;
8889;SDS011;4481;43.406;24.454;2023-04-15T13:37:45;2.67;;;1.93;;
8889;SDS011;4481;43.406;24.454;2023-04-15T13:40:12;1.83;;;1.73;;
8889;SDS011;4481;43.406;24.454;2023-04-15T13:42:39;2.03;;;1.53;;
8889;SDS011;4481;43.406;24.454;2023-04-15T13:45:06;3.20;;;1.57;;
8889;SDS011;4481;43.406;24.454;2023-04-15T13:47:33;3.33;;;1.67;;
8889;SDS011;4481;43.406;24.454;2023-04-15T13:49:59;4.77;;;1.80;;
8889;SDS011;4481;43.406;24.454;2023-04-15T13:52:25;4.10;;;1.77;;
8889;SDS011;4481;43.406;24.454;2023-04-15T13:54:51;2.60;;;1.50;;
8889;SDS011;4481;43.406;24.454;2023-04-15T13:57:18;1.90;;;1.77;;
8889;SDS011;4481;43.406;24.454;2023-04-15T13:59:44;2.70;;;1.87;;
8889;SDS011;4481;43.406;24.454;2023-04-15T14:02:10;7.30;;;2.40;;
8889;SDS011;4481;43.406;24.454;2023-04-15T14:04:37;1.93;;;1.70;;
8889;SDS011;4481;43.406;24.454;2023-04-15T14:07:03;4.07;;;2.00;;
8889;SDS011;4481;43.406;24.454;2023-04-15T14:09:29;5.50;;;2.70;;
8889;SDS011;4481;43.406;24.454;2023-04-15T14:11:55;3.00;;;1.57;;
8889;SDS011;4481;43.406;24.454;2023-04-15T14:14:23;2.73;;;1.50;;
8889;SDS011;4481;43.406;24.454;2023-04-15T14:16:49;2.63;;;1.80;;
8889;SDS011;4481;43.406;24.454;2023-04-15T14:19:16;2.77;;;1.80;;
8889;SDS011;4481;43.406;24.454;2023-04-15T14:21:42;2.50;;;1.70;;
8889;SDS011;4481;43.406;24.454;2023-04-15T14:24:08;3.37;;;2.00;;
8889;SDS011;4481;43.406;24.454;2023-04-15T14:26:35;4.00;;;1.67;;
8889;SDS011;4481;43.406;24.454;2023-04-15T14:29:01;5.80;;;2.37;;
8889;SDS011;4481;43.406;24.454;2023-04-15T14:31:28;2.43;;;1.97;;
8889;SDS011;4481;43.406;24.454;2023-04-15T14:33:54;3.87;;;1.70;;
8889;SDS011;4481;43.406;24.454;2023-04-15T14:36:20;2.90;;;1.53;;
8889;SDS011;4481;43.406;24.454;2023-04-15T14:38:46;4.70;;;2.20;;
8889;SDS011;4481;43.406;24.454;2023-04-15T14:41:12;3.93;;;2.00;;
8889;SDS011;4481;43.406;24.454;2023-04-15T14:43:39;5.20;;;2.10;;
8889;SDS011;4481;43.406;24.454;2023-04-15T14:46:05;3.33;;;2.20;;
8889;SDS011;4481;43.406;24.454;2023-04-15T14:48:33;3.63;;;1.87;;
8889;SDS011;4481;43.406;24.454;2023-04-15T14:50:59;3.27;;;1.60;;
8889;SDS011;4481;43.406;24.454;2023-04-15T14:53:25;1.80;;;1.70;;
8889;SDS011;4481;43.406;24.454;2023-04-15T14:55:51;2.23;;;1.60;;
8889;SDS011;4481;43.406;24.454;2023-04-15T14:58:18;1.63;;;1.50;;
8889;SDS011;4481;43.406;24.454;2023-04-15T15:00:44;3.70;;;2.30;;
8889;SDS011;4481;43.406;24.454;2023-04-15T15:03:10;2.67;;;1.50;;
8889;SDS011;4481;43.406;24.454;2023-04-15T15:05:37;2.93;;;1.70;;
8889;SDS011;4481;43.406;24.454;2023-04-15T15:08:04;3.73;;;1.43;;